Yankeetown, Indiana
Current Conditions -  °F | °C
As of 8:17 AM on Sunday 23 Nov 2014 (Local Time) from KEVV Reporting Station
Light Rain Light Rain  
Wind Chill: 51°   Ceiling: 3000
Heat Index: 51°   Visibility: 8mi
Dew Point: 44°   Wind: 6mph
Humidity: 77%   Direction: 130°SE
Pressure: 29.84"   Gusts: NA
Location:  37.9629°N, 87.3632°W
Report Text: KEVV 231417Z 13005KT 8SM -RA OVC030 11/07 A2984 RMK AO2 P0001 T01060067
Loading
Personal Weather Stations






























Interactive Weather Map New forecast layout! Learn more

10-Day Weather Forecast

Advertisements
Track Severe Weather on mobile